Time;durP1;ratioP1;P1;durP2;ratioP2;P2;SDS_P1;SDS_P2;PMS_P1;PMS_P2;Temp;Humidity;BMP_temperature;BMP_pressure;BME280_temperature;BME280_humidity;BME280_pressure;Samples;Min_cycle;Max_cycle;Signal;HPM_P1;HPM_P2
2023/04/14 00:01:39;;;;;;;37.00;22.00;;;;;;;5.87;69.73;100445.33;107757;1251;109577;-63
2023/04/14 00:04:08;;;;;;;34.00;22.50;;;;;;;5.82;69.73;100447.11;107603;1251;108334;-64
2023/04/14 00:06:37;;;;;;;33.10;22.00;;;;;;;5.78;70.13;100448.15;107737;1254;97848;-63
2023/04/14 00:09:06;;;;;;;39.10;22.00;;;;;;;5.73;70.46;100445.42;107662;1251;97783;-65
2023/04/14 00:11:35;;;;;;;40.90;20.30;;;;;;;5.73;70.60;100448.84;107589;1251;111264;-63
2023/04/14 00:14:04;;;;;;;30.10;19.30;;;;;;;5.75;71.05;100444.06;107671;1251;109246;-66
2023/04/14 00:16:34;;;;;;;38.50;20.50;;;;;;;5.80;71.16;100450.09;107567;1254;107644;-63
2023/04/14 00:19:02;;;;;;;39.60;20.00;;;;;;;5.83;71.49;100454.90;107582;1251;97807;-63
2023/04/14 00:21:31;;;;;;;30.50;19.90;;;;;;;5.82;71.31;100455.63;107618;1251;97887;-64
2023/04/14 00:23:59;;;;;;;29.90;19.60;;;;;;;5.83;71.50;100459.38;107786;1254;111574;-64
2023/04/14 00:26:30;;;;;;;32.90;19.70;;;;;;;5.83;71.53;100462.33;107645;1250;109352;-63
2023/04/14 00:28:59;;;;;;;31.80;19.70;;;;;;;5.85;71.52;100471.14;107587;1252;107673;-62
2023/04/14 00:31:27;;;;;;;32.10;18.50;;;;;;;5.87;71.90;100467.17;107654;1251;97896;-64
2023/04/14 00:33:56;;;;;;;35.60;20.00;;;;;;;5.89;71.96;100467.81;107717;1248;98314;-64
2023/04/14 00:36:25;;;;;;;31.90;18.30;;;;;;;5.89;72.04;100465.80;107986;1251;112133;-63
2023/04/14 00:38:54;;;;;;;37.20;18.50;;;;;;;5.86;71.60;100464.98;107942;1253;109936;-64
2023/04/14 00:41:25;;;;;;;30.90;18.60;;;;;;;5.84;71.62;100471.52;107909;1253;108031;-64
2023/04/14 00:43:54;;;;;;;27.00;17.60;;;;;;;5.85;71.68;100471.65;107925;1251;97899;-62
2023/04/14 00:46:23;;;;;;;29.50;17.90;;;;;;;5.86;71.84;100466.92;107629;1251;97834;-64
2023/04/14 00:48:54;;;;;;;31.20;17.80;;;;;;;5.86;71.76;100472.05;107969;1251;111782;-64
2023/04/14 00:51:23;;;;;;;27.80;17.20;;;;;;;5.83;71.95;100469.98;107705;1256;110271;-64
2023/04/14 00:53:53;;;;;;;31.90;18.30;;;;;;;5.81;71.79;100469.45;107922;1254;107055;-64
2023/04/14 00:56:23;;;;;;;26.10;16.90;;;;;;;5.80;71.84;100470.17;107895;1251;97891;-63
2023/04/14 00:58:52;;;;;;;25.70;17.60;;;;;;;5.80;71.90;100466.14;107921;1251;97690;-64
2023/04/14 01:01:21;;;;;;;33.20;18.10;;;;;;;5.76;71.46;100467.29;107810;1251;111290;-64
2023/04/14 01:03:51;;;;;;;28.50;17.20;;;;;;;5.73;71.61;100464.36;107700;1251;109266;-64
2023/04/14 01:06:20;;;;;;;30.20;17.90;;;;;;;5.70;71.62;100466.65;107605;1251;107241;-64
2023/04/14 01:08:49;;;;;;;24.70;16.70;;;;;;;5.70;71.58;100461.03;107695;1251;97966;-64
2023/04/14 01:11:27;;;;;;;32.20;17.20;;;;;;;5.67;71.72;100457.65;107656;1250;98345;-64
2023/04/14 01:14:26;;;;;;;29.60;17.50;;;;;;;5.61;71.66;100454.30;107664;1251;111826;-64
2023/04/14 01:17:00;;;;;;;28.40;17.10;;;;;;;5.60;71.76;100454.59;107620;1251;109919;-64
2023/04/14 01:19:47;;;;;;;29.30;17.70;;;;;;;5.56;72.02;100457.69;107623;1253;106689;-64
2023/04/14 01:22:19;;;;;;;35.10;18.20;;;;;;;5.49;71.67;100459.64;107787;1251;97949;-63
2023/04/14 01:25:15;;;;;;;35.90;19.80;;;;;;;5.34;71.66;100458.20;107830;1253;97803;-63
2023/04/14 01:28:05;;;;;;;28.90;18.00;;;;;;;5.30;72.13;100459.17;107685;1251;113199;-64
2023/04/14 01:30:47;;;;;;;28.90;19.00;;;;;;;5.34;72.29;100455.38;107763;1251;110651;-63
2023/04/14 01:33:21;;;;;;;29.30;19.30;;;;;;;5.35;72.04;100456.56;107578;1249;107698;-63
2023/04/14 01:35:55;;;;;;;29.80;19.10;;;;;;;5.30;72.05;100461.14;107649;1251;98522;-63
2023/04/14 01:38:28;;;;;;;29.10;19.20;;;;;;;5.24;71.43;100457.52;107792;1251;97856;-64
2023/04/14 01:41:03;;;;;;;35.20;19.10;;;;;;;5.16;71.19;100455.95;107880;1253;112331;-64
2023/04/14 01:43:36;;;;;;;31.70;20.00;;;;;;;5.07;71.23;100456.42;107977;1251;109002;-64
2023/04/14 01:46:12;;;;;;;37.60;20.20;;;;;;;4.99;71.43;100458.73;107779;1256;108521;-64
2023/04/14 01:48:42;;;;;;;34.50;21.50;;;;;;;4.93;71.41;100458.77;107835;1249;98329;-63
2023/04/14 01:51:12;;;;;;;30.80;19.50;;;;;;;4.90;71.60;100462.58;107648;1251;97654;-64
2023/04/14 01:53:44;;;;;;;33.40;19.80;;;;;;;4.88;71.42;100458.47;107621;1249;111263;-64
2023/04/14 01:56:16;;;;;;;36.00;19.80;;;;;;;4.84;71.57;100452.25;107809;1251;109182;-63
2023/04/14 01:58:47;;;;;;;36.40;20.70;;;;;;;4.82;71.50;100453.15;107694;1251;107252;-63
2023/04/14 02:01:16;;;;;;;37.30;21.30;;;;;;;4.76;71.54;100456.43;107815;1251;97838;-64
2023/04/14 02:03:48;;;;;;;35.50;20.50;;;;;;;4.67;71.47;100454.15;107635;1251;98354;-63
2023/04/14 02:06:20;;;;;;;32.40;19.40;;;;;;;4.61;71.67;100449.77;107838;1251;111982;-64
2023/04/14 02:08:50;;;;;;;38.60;19.10;;;;;;;4.57;71.60;100449.02;107654;1251;109823;-64
2023/04/14 02:11:20;;;;;;;34.20;18.80;;;;;;;4.55;71.71;100448.96;107643;1249;107956;-64
2023/04/14 02:13:51;;;;;;;33.40;18.60;;;;;;;4.52;71.86;100447.73;107775;1251;97880;-63
2023/04/14 02:16:20;;;;;;;28.60;19.60;;;;;;;4.51;71.93;100447.65;107703;1250;97769;-63
2023/04/14 02:18:50;;;;;;;32.50;20.30;;;;;;;4.51;72.18;100447.13;107673;1251;111326;-65
2023/04/14 02:21:21;;;;;;;39.80;20.20;;;;;;;4.49;72.39;100445.46;107730;1251;109660;-62
2023/04/14 02:23:50;;;;;;;30.60;19.40;;;;;;;4.47;72.61;100446.69;107604;1251;107731;-63
2023/04/14 02:26:22;;;;;;;34.40;20.30;;;;;;;4.47;73.13;100446.29;107653;1251;97820;-64
2023/04/14 02:29:06;;;;;;;32.20;19.40;;;;;;;4.51;73.40;100443.75;107663;1251;97819;-65
2023/04/14 02:31:41;;;;;;;31.00;20.40;;;;;;;4.53;73.18;100445.34;107734;1251;112490;-64
2023/04/14 02:34:13;;;;;;;32.40;19.60;;;;;;;4.56;73.36;100445.69;107737;1251;110003;-65
2023/04/14 02:36:47;;;;;;;31.20;19.70;;;;;;;4.61;73.75;100444.30;107661;1251;108578;-64
2023/04/14 02:39:21;;;;;;;40.50;20.00;;;;;;;4.65;73.75;100446.18;107638;1251;97680;-64
2023/04/14 02:41:57;;;;;;;35.50;19.20;;;;;;;4.65;73.61;100448.30;107664;1251;98492;-63
2023/04/14 02:44:31;;;;;;;31.20;19.90;;;;;;;4.60;73.51;100448.44;107783;1251;110325;-63
2023/04/14 02:47:06;;;;;;;;;;;;;;;4.60;73.64;100450.77;107846;1251;108884;-65
2023/04/14 02:49:43;;;;;;;34.20;21.00;;;;;;;4.58;73.68;100454.44;107914;1251;107468;-64
2023/04/14 02:52:14;;;;;;;40.30;21.70;;;;;;;4.56;73.40;100450.89;107827;1250;97894;-64
2023/04/14 02:54:47;;;;;;;43.40;21.00;;;;;;;4.53;73.48;100457.81;107809;1251;97813;-63
2023/04/14 02:57:17;;;;;;;33.10;21.00;;;;;;;4.50;73.54;100458.91;107930;1251;112383;-64
2023/04/14 02:59:51;;;;;;;36.60;20.30;;;;;;;4.43;73.31;100454.92;107921;1250;109278;-64
2023/04/14 03:02:20;;;;;;;32.40;19.60;;;;;;;4.43;73.50;100454.41;107745;1251;107447;-64
2023/04/14 03:04:58;;;;;;;33.10;19.90;;;;;;;4.44;73.64;100453.61;107907;1251;97805;-64
2023/04/14 03:07:49;;;;;;;36.00;19.50;;;;;;;4.45;73.59;100450.73;107766;1251;98899;-64
2023/04/14 03:10:19;;;;;;;31.00;20.20;;;;;;;4.46;73.62;100451.55;107675;1254;112121;-62
2023/04/14 03:12:49;;;;;;;36.80;20.80;;;;;;;4.47;73.58;100451.49;107626;1251;108693;-64
2023/04/14 03:15:20;;;;;;;37.30;19.40;;;;;;;4.49;73.68;100452.89;107705;1251;107722;-63
2023/04/14 03:17:54;;;;;;;42.30;20.60;;;;;;;4.49;73.93;100451.17;107661;1251;98024;-64
2023/04/14 03:20:25;;;;;;;38.20;20.80;;;;;;;4.48;74.26;100455.98;107702;1251;97723;-64
2023/04/14 03:23:04;;;;;;;37.40;20.00;;;;;;;4.50;74.07;100463.89;107606;1250;111692;-64
2023/04/14 03:25:39;;;;;;;34.10;21.50;;;;;;;4.49;73.81;100467.27;107696;1251;108636;-64
2023/04/14 03:28:17;;;;;;;41.30;21.60;;;;;;;4.51;73.86;100471.06;107650;1251;108339;-66
2023/04/14 03:30:50;;;;;;;36.30;20.50;;;;;;;4.52;73.91;100474.39;107507;1250;97858;-64
2023/04/14 03:33:28;;;;;;;34.10;20.00;;;;;;;4.52;73.83;100473.52;107584;1250;97880;-64
2023/04/14 03:35:58;;;;;;;27.80;18.00;;;;;;;4.46;73.61;100472.31;107654;1253;112704;-64
2023/04/14 03:38:30;;;;;;;30.40;18.90;;;;;;;4.38;73.48;100471.76;107650;1253;108800;-64
2023/04/14 03:41:04;;;;;;;27.90;17.80;;;;;;;4.32;73.64;100474.33;107707;1250;108464;-64
2023/04/14 03:43:34;;;;;;;30.30;16.40;;;;;;;4.31;73.83;100478.61;107629;1251;97808;-63
2023/04/14 03:46:06;;;;;;;29.20;17.40;;;;;;;4.33;74.08;100474.42;107541;1251;97809;-64
2023/04/14 03:48:41;;;;;;;34.60;19.10;;;;;;;4.32;74.02;100474.46;107717;1251;112005;-64
2023/04/14 03:51:14;;;;;;;32.90;18.60;;;;;;;4.34;74.18;100470.58;107714;1256;109937;-63
2023/04/14 03:53:45;;;;;;;29.90;17.30;;;;;;;4.34;73.95;100465.82;107608;1250;107353;-63
2023/04/14 03:56:16;;;;;;;29.90;19.20;;;;;;;4.33;73.91;100469.82;107768;1251;97801;-62
2023/04/14 03:58:48;;;;;;;27.10;17.20;;;;;;;4.33;74.10;100473.55;107584;1250;97930;-63
2023/04/14 04:01:18;;;;;;;30.90;18.80;;;;;;;4.32;74.05;100476.05;107805;1250;112299;-64
2023/04/14 04:03:47;;;;;;;41.00;19.00;;;;;;;4.30;73.85;100477.82;107608;1254;108971;-64
2023/04/14 04:06:16;;;;;;;34.90;18.40;;;;;;;4.31;74.37;100477.92;107767;1250;107653;-64
2023/04/14 04:08:48;;;;;;;33.50;18.90;;;;;;;4.36;74.59;100485.23;107743;1250;97797;-64
2023/04/14 04:11:19;;;;;;;29.90;18.00;;;;;;;4.42;74.58;100489.64;107806;1250;97817;-63
2023/04/14 04:13:50;;;;;;;29.40;19.20;;;;;;;4.49;74.55;100494.84;107586;1251;111324;-61
2023/04/14 04:16:21;;;;;;;29.00;16.70;;;;;;;4.52;74.55;100496.41;107887;1251;109807;-63
2023/04/14 04:18:50;;;;;;;34.60;19.10;;;;;;;4.55;74.46;100502.08;107666;1251;108707;-62
2023/04/14 04:21:27;;;;;;;34.80;19.20;;;;;;;4.54;74.23;100499.86;107794;1251;97876;-62
2023/04/14 04:23:59;;;;;;;34.80;18.60;;;;;;;4.49;74.32;100506.52;107958;1251;98029;-62
2023/04/14 04:26:29;;;;;;;30.20;17.40;;;;;;;4.49;74.42;100504.22;107685;1251;109951;-61
2023/04/14 04:28:59;;;;;;;28.90;18.60;;;;;;;4.51;74.59;100508.16;107782;1251;109846;-63
2023/04/14 04:31:31;;;;;;;29.80;18.00;;;;;;;4.56;74.71;100510.35;107737;1251;108705;-62
2023/04/14 04:34:02;;;;;;;24.40;18.40;;;;;;;4.63;74.78;100510.08;107660;1251;97805;-62
2023/04/14 04:36:33;;;;;;;26.40;17.30;;;;;;;4.68;74.93;100510.42;107799;1256;99509;-62
2023/04/14 04:39:02;;;;;;;27.10;16.80;;;;;;;4.76;75.05;100514.89;107791;1251;111263;-62
2023/04/14 04:41:33;;;;;;;25.40;16.90;;;;;;;4.83;75.01;100515.77;107604;1250;109873;-62
2023/04/14 04:44:02;;;;;;;25.10;17.40;;;;;;;4.89;75.37;100514.52;107629;1253;108535;-62
2023/04/14 04:46:50;;;;;;;28.80;16.70;;;;;;;4.97;75.20;100516.27;107585;1250;97829;-63
2023/04/14 04:49:20;;;;;;;29.00;18.30;;;;;;;5.08;75.31;100517.31;107618;1251;97713;-63
2023/04/14 04:51:48;;;;;;;31.30;18.20;;;;;;;5.19;75.26;100516.89;107777;1251;112297;-63
2023/04/14 04:54:19;;;;;;;27.10;17.60;;;;;;;5.29;75.41;100519.02;107620;1250;110200;-63
2023/04/14 04:56:47;;;;;;;31.00;17.70;;;;;;;5.36;75.14;100518.70;107652;1251;108666;-62
2023/04/14 04:59:16;;;;;;;28.30;18.20;;;;;;;5.42;75.11;100520.83;107627;1250;97917;-62
2023/04/14 05:01:44;;;;;;;36.60;18.10;;;;;;;5.48;75.26;100523.91;107681;1251;97905;-63
2023/04/14 05:04:13;;;;;;;36.10;18.90;;;;;;;5.55;75.22;100529.50;107690;1251;111340;-62
2023/04/14 05:06:42;;;;;;;34.30;17.80;;;;;;;5.62;75.29;100529.70;107622;1250;108675;-62
2023/04/14 05:09:10;;;;;;;32.70;18.70;;;;;;;5.70;75.42;100528.62;107633;1253;107572;-63
2023/04/14 05:11:40;;;;;;;35.40;19.20;;;;;;;5.81;75.46;100534.22;107630;1249;97822;-62
2023/04/14 05:14:09;;;;;;;33.50;18.00;;;;;;;5.89;75.37;100532.41;107671;1250;97788;-63
2023/04/14 05:16:38;;;;;;;34.60;19.00;;;;;;;5.97;75.52;100534.14;107670;1251;111408;-63
2023/04/14 05:19:07;;;;;;;31.60;19.20;;;;;;;6.03;75.23;100525.58;107702;1254;110101;-63
2023/04/14 05:21:35;;;;;;;40.70;19.90;;;;;;;6.07;75.29;100523.83;107679;1249;107670;-63
2023/04/14 05:24:04;;;;;;;32.20;19.40;;;;;;;6.09;75.30;100520.27;107687;1250;97903;-61
2023/04/14 05:26:32;;;;;;;37.50;19.80;;;;;;;6.18;75.76;100514.43;107757;1250;97836;-63
2023/04/14 05:29:18;;;;;;;31.40;20.60;;;;;;;6.30;75.82;100509.16;107713;1250;111269;-64
2023/04/14 05:31:47;;;;;;;38.70;20.50;;;;;;;6.37;75.91;100514.45;107679;1253;109057;-62
2023/04/14 05:34:16;;;;;;;30.30;19.50;;;;;;;6.42;75.91;100512.30;107773;1250;108713;-62
2023/04/14 05:36:45;;;;;;;40.30;20.00;;;;;;;6.48;76.02;100503.30;107647;1250;97903;-62
2023/04/14 05:39:15;;;;;;;37.40;21.10;;;;;;;6.54;76.32;100500.93;107698;1250;97719;-62
2023/04/14 05:41:43;;;;;;;44.70;22.80;;;;;;;6.61;76.82;100500.08;107684;1250;111533;-63
2023/04/14 05:44:12;;;;;;;45.40;24.00;;;;;;;6.66;76.97;100496.30;107680;1250;109759;-62
2023/04/14 05:46:41;;;;;;;48.20;22.20;;;;;;;6.73;77.48;100497.16;107677;1251;109281;-63
2023/04/14 05:49:10;;;;;;;44.30;21.10;;;;;;;6.79;77.38;100495.45;107712;1250;98279;-62
2023/04/14 05:51:39;;;;;;;44.30;20.20;;;;;;;6.87;77.29;100493.05;107690;1251;97688;-63
2023/04/14 05:54:08;;;;;;;41.80;21.60;;;;;;;6.95;77.29;100491.56;107668;1250;110491;-63
2023/04/14 05:56:36;;;;;;;49.70;21.90;;;;;;;7.02;77.19;100489.60;107687;1250;110215;-63
2023/04/14 05:59:05;;;;;;;40.80;21.00;;;;;;;7.11;77.53;100483.56;107683;1249;108629;-62
2023/04/14 06:01:33;;;;;;;38.90;20.80;;;;;;;7.17;78.09;100474.30;107640;1250;97816;-62
2023/04/14 06:04:02;;;;;;;33.60;21.30;;;;;;;7.23;78.14;100473.52;107693;1253;97934;-61
2023/04/14 06:06:32;;;;;;;31.70;20.10;;;;;;;7.30;78.38;100471.84;107743;1256;111436;-61
2023/04/14 06:09:00;;;;;;;36.20;20.40;;;;;;;7.37;78.67;100469.39;107847;1248;110215;-63
2023/04/14 06:11:29;;;;;;;27.80;19.60;;;;;;;7.45;79.11;100469.41;107982;1251;108091;-63
2023/04/14 06:14:00;;;;;;;41.30;19.80;;;;;;;7.55;79.18;100466.88;107720;1250;97829;-63
2023/04/14 06:16:29;;;;;;;31.80;20.30;;;;;;;7.66;79.79;100461.73;107784;1250;98470;-63
2023/04/14 06:18:58;;;;;;;31.70;20.20;;;;;;;7.77;80.24;100463.11;107925;1249;112299;-61
2023/04/14 06:21:27;;;;;;;32.90;19.20;;;;;;;7.90;80.18;100461.73;107975;1248;110330;-63
2023/04/14 06:23:55;;;;;;;41.40;20.90;;;;;;;8.01;80.79;100463.85;107712;1250;108129;-62
2023/04/14 06:26:24;;;;;;;45.50;21.40;;;;;;;8.11;80.56;100464.77;107924;1249;97704;-62
2023/04/14 06:28:52;;;;;;;37.80;21.50;;;;;;;8.20;80.84;100467.10;107916;1249;97687;-64
2023/04/14 06:31:21;;;;;;;36.70;21.20;;;;;;;8.27;80.31;100461.64;107650;1254;111968;-63
2023/04/14 06:33:51;;;;;;;36.70;21.00;;;;;;;8.38;80.15;100457.95;107697;1251;109986;-65
2023/04/14 06:36:20;;;;;;;39.50;19.60;;;;;;;8.48;80.15;100457.09;107675;1250;107153;-63
2023/04/14 06:38:49;;;;;;;36.90;19.60;;;;;;;8.58;80.13;100458.96;107676;1251;97923;-63
2023/04/14 06:41:17;;;;;;;32.80;18.50;;;;;;;8.69;80.21;100462.62;107769;1250;97904;-64
2023/04/14 06:43:46;;;;;;;31.60;17.50;;;;;;;8.82;80.44;100459.08;107672;1250;111819;-62
2023/04/14 06:46:16;;;;;;;28.90;17.70;;;;;;;8.94;80.35;100459.23;107708;1253;108782;-62
2023/04/14 06:48:44;;;;;;;26.50;17.20;;;;;;;9.09;80.04;100459.61;107650;1251;107653;-62
2023/04/14 06:51:13;;;;;;;27.90;17.30;;;;;;;9.22;79.70;100461.70;107706;1250;97839;-64
2023/04/14 06:53:42;;;;;;;31.80;17.00;;;;;;;9.37;79.66;100460.72;107688;1250;97822;-64
2023/04/14 06:56:10;;;;;;;26.30;17.10;;;;;;;9.52;78.92;100462.09;107710;1251;111774;-63
2023/04/14 06:58:39;;;;;;;26.30;16.10;;;;;;;9.65;78.62;100464.33;107912;1248;109933;-63
2023/04/14 07:01:07;;;;;;;25.40;19.50;;;;;;;9.81;79.00;100462.58;107940;1248;108893;-64
2023/04/14 07:03:37;;;;;;;31.50;16.90;;;;;;;9.95;78.59;100454.27;107645;1250;97663;-64
2023/04/14 07:06:15;;;;;;;27.30;15.50;;;;;;;10.10;77.95;100459.80;107946;1248;97815;-64
2023/04/14 07:08:45;;;;;;;36.10;18.20;;;;;;;10.24;77.60;100453.16;107734;1251;111203;-64
2023/04/14 07:11:13;;;;;;;30.50;15.60;;;;;;;10.39;77.19;100449.44;107922;1249;108672;-63
2023/04/14 07:13:42;;;;;;;31.30;16.80;;;;;;;10.53;76.92;100446.54;107657;1249;106767;-64
2023/04/14 07:16:10;;;;;;;29.70;15.80;;;;;;;10.67;76.75;100447.34;107665;1250;97820;-64
2023/04/14 07:18:39;;;;;;;26.10;15.60;;;;;;;10.81;76.53;100443.17;107667;1251;97710;-63
2023/04/14 07:21:07;;;;;;;28.20;13.80;;;;;;;10.95;76.14;100445.24;107745;1250;111868;-64
2023/04/14 07:23:36;;;;;;;29.90;18.00;;;;;;;11.11;75.88;100441.03;107638;1250;109917;-63
2023/04/14 07:26:04;;;;;;;22.70;12.70;;;;;;;11.28;75.64;100442.28;107683;1249;108047;-64
2023/04/14 07:28:33;;;;;;;25.70;13.20;;;;;;;11.45;74.81;100441.70;107654;1251;97954;-64
2023/04/14 07:31:09;;;;;;;18.00;13.30;;;;;;;11.59;74.44;100444.21;107775;1251;97719;-64
2023/04/14 07:33:38;;;;;;;23.80;12.20;;;;;;;11.73;74.07;100441.52;107708;1250;111780;-64
2023/04/14 07:36:08;;;;;;;24.50;12.50;;;;;;;11.88;73.79;100445.61;107629;1250;109634;-63
2023/04/14 07:38:36;;;;;;;25.80;13.90;;;;;;;12.03;73.33;100440.02;107793;1250;107809;-64
2023/04/14 07:41:06;;;;;;;26.50;12.90;;;;;;;12.22;72.52;100440.88;107640;1250;97818;-64
2023/04/14 07:43:34;;;;;;;21.40;13.10;;;;;;;12.41;71.88;100440.73;107692;1250;97780;-64
2023/04/14 07:46:05;;;;;;;24.70;12.70;;;;;;;12.58;71.01;100441.67;107683;1250;111643;-64
2023/04/14 07:48:35;;;;;;;22.40;13.70;;;;;;;12.73;71.00;100435.88;107742;1251;110166;-66
2023/04/14 07:51:04;;;;;;;15.40;12.20;;;;;;;12.88;69.40;100434.33;107651;1250;108362;-64
2023/04/14 07:53:39;;;;;;;17.00;11.90;;;;;;;13.06;67.90;100442.55;107666;1253;97805;-63
2023/04/14 07:56:08;;;;;;;22.50;11.80;;;;;;;13.22;68.23;100443.04;107715;1250;97995;-66
2023/04/14 07:58:36;;;;;;;21.60;13.60;;;;;;;13.39;67.40;100444.16;107156;1248;1053652;-64
2023/04/14 08:01:05;;;;;;;21.70;11.80;;;;;;;13.56;65.92;100447.39;107958;1248;109024;-64
2023/04/14 08:03:36;;;;;;;36.60;12.20;;;;;;;13.72;65.54;100445.48;107938;1250;107928;-63
2023/04/14 08:06:06;;;;;;;23.20;12.00;;;;;;;13.89;65.56;100438.09;107972;1248;97794;-63
2023/04/14 08:08:35;;;;;;;21.30;11.30;;;;;;;14.07;64.59;100433.52;107752;1250;98376;-63
2023/04/14 08:11:03;;;;;;;22.10;11.80;;;;;;;14.24;64.40;100431.25;107844;1253;112407;-63
2023/04/14 08:13:32;;;;;;;18.70;10.50;;;;;;;14.43;63.60;100437.00;107627;1250;109051;-64
2023/04/14 08:16:00;;;;;;;16.30;9.90;;;;;;;14.60;62.69;100431.15;107617;1250;108540;-64
2023/04/14 08:18:30;;;;;;;24.50;10.20;;;;;;;14.78;61.83;100427.96;107963;1248;99366;-65
2023/04/14 08:20:58;;;;;;;23.60;10.90;;;;;;;14.90;62.10;100424.17;107949;1249;97746;-63
2023/04/14 08:23:26;;;;;;;27.30;10.40;;;;;;;15.05;61.46;100422.50;107700;1250;111026;-62
2023/04/14 08:25:55;;;;;;;21.10;11.10;;;;;;;15.21;61.14;100418.59;107642;1250;110076;-62
2023/04/14 08:28:24;;;;;;;18.70;10.80;;;;;;;15.39;61.01;100419.30;107638;1250;109395;-63
2023/04/14 08:30:52;;;;;;;27.50;11.40;;;;;;;15.60;60.40;100412.64;107774;1248;97871;-62
2023/04/14 08:33:21;;;;;;;17.40;10.70;;;;;;;15.80;59.12;100404.02;107952;1252;99521;-63
2023/04/14 08:35:50;;;;;;;15.80;11.20;;;;;;;15.95;58.19;100407.01;107740;1250;111643;-63
2023/04/14 08:38:28;;;;;;;18.80;11.60;;;;;;;16.15;56.62;100404.52;107800;1248;110678;-63
2023/04/14 08:41:00;;;;;;;17.50;11.20;;;;;;;16.24;57.30;100408.73;107896;1249;108381;-65
2023/04/14 08:43:28;;;;;;;28.80;9.20;;;;;;;16.26;57.44;100404.05;107694;1248;97813;-64
2023/04/14 08:46:00;;;;;;;16.50;10.10;;;;;;;16.41;56.73;100400.86;107998;1248;97902;-64
2023/04/14 08:48:30;;;;;;;27.50;9.70;;;;;;;16.62;55.48;100396.21;107968;1249;112293;-64
2023/04/14 08:51:11;;;;;;;17.00;8.90;;;;;;;16.80;55.26;100396.94;107950;1248;108657;-63
2023/04/14 08:53:44;;;;;;;34.40;10.50;;;;;;;17.02;54.91;100394.90;107946;1252;108670;-64
2023/04/14 08:56:17;;;;;;;30.00;9.60;;;;;;;17.17;54.20;100393.64;107668;1248;97900;-65
2023/04/14 08:58:46;;;;;;;16.30;9.40;;;;;;;17.19;53.10;100392.83;107958;1253;97705;-63
2023/04/14 09:01:16;;;;;;;15.90;8.60;;;;;;;17.27;52.79;100390.45;107933;1248;111898;-64
2023/04/14 09:03:46;;;;;;;13.00;8.70;;;;;;;17.50;52.46;100388.17;107849;1248;108708;-62
2023/04/14 09:06:15;;;;;;;21.70;10.00;;;;;;;17.77;51.26;100383.29;107969;1248;108566;-64
2023/04/14 09:08:43;;;;;;;19.80;9.40;;;;;;;17.93;51.02;100384.73;107941;1253;97958;-64
2023/04/14 09:11:14;;;;;;;19.80;10.70;;;;;;;17.93;51.40;100389.11;107971;1249;97782;-63
2023/04/14 09:13:43;;;;;;;16.20;9.40;;;;;;;17.95;51.57;100386.50;107661;1250;112348;-64
2023/04/14 09:16:13;;;;;;;13.70;9.10;;;;;;;17.92;50.83;100383.61;107845;1250;110027;-63
2023/04/14 09:18:42;;;;;;;11.90;6.60;;;;;;;17.92;50.39;100382.59;107861;1249;107450;-63
2023/04/14 09:21:16;;;;;;;15.00;6.20;;;;;;;17.93;48.66;100380.19;107755;1250;97829;-63
2023/04/14 09:24:05;;;;;;;9.40;6.00;;;;;;;17.92;48.59;100377.86;107927;1249;98334;-64
2023/04/14 09:26:34;;;;;;;11.40;5.60;;;;;;;17.88;48.84;100381.05;107931;1249;112404;-64
2023/04/14 09:29:02;;;;;;;15.70;5.30;;;;;;;17.85;47.43;100377.17;107946;1249;109946;-65
2023/04/14 09:31:32;;;;;;;10.40;5.80;;;;;;;18.32;47.24;100372.72;107919;1251;108171;-63
2023/04/14 09:34:00;;;;;;;12.00;5.70;;;;;;;18.93;45.32;100366.63;107906;1252;97774;-64
2023/04/14 09:36:30;;;;;;;11.60;5.50;;;;;;;19.33;45.37;100362.61;107949;1248;98317;-63
2023/04/14 09:38:58;;;;;;;15.70;4.80;;;;;;;19.66;44.10;100358.69;108004;1248;111534;-62
2023/04/14 09:41:27;;;;;;;9.70;4.50;;;;;;;20.07;43.74;100356.99;107805;1253;109545;-62
2023/04/14 09:44:06;;;;;;;12.90;5.00;;;;;;;20.94;42.33;100359.18;107658;1250;108221;-63
2023/04/14 09:46:35;;;;;;;14.70;6.40;;;;;;;22.00;39.31;100362.58;107669;1250;97825;-62
2023/04/14 09:49:05;;;;;;;6.40;4.70;;;;;;;22.79;38.95;100357.27;107736;1254;98341;-64
2023/04/14 09:51:34;;;;;;;9.80;5.00;;;;;;;23.61;36.33;100344.88;107699;1250;111578;-64
2023/04/14 09:54:04;;;;;;;7.10;4.10;;;;;;;24.06;35.05;100347.27;107633;1250;111198;-65
2023/04/14 09:56:33;;;;;;;7.00;3.50;;;;;;;24.60;34.50;100350.73;107638;1251;107648;-66
2023/04/14 09:59:02;;;;;;;19.40;4.10;;;;;;;25.27;35.08;100348.40;107685;1251;97842;-63
2023/04/14 10:01:32;;;;;;;15.90;4.50;;;;;;;26.03;33.21;100346.80;107655;1250;98331;-64
2023/04/14 10:04:02;;;;;;;9.60;4.30;;;;;;;26.51;32.34;100342.83;107652;1250;111318;-63
2023/04/14 10:06:31;;;;;;;18.60;5.90;;;;;;;26.50;31.26;100347.34;107665;1250;108507;-62
2023/04/14 10:09:00;;;;;;;11.30;3.90;;;;;;;26.78;31.18;100349.06;107654;1254;108312;-65
2023/04/14 10:11:34;;;;;;;16.40;4.20;;;;;;;27.00;29.51;100344.68;107665;1250;97724;-64
2023/04/14 10:14:05;;;;;;;20.50;3.70;;;;;;;26.95;29.69;100346.05;107755;1250;98516;-62
2023/04/14 10:16:33;;;;;;;5.00;3.90;;;;;;;26.79;30.64;100337.44;107949;1251;112378;-63
2023/04/14 10:19:02;;;;;;;24.70;4.40;;;;;;;26.27;31.34;100345.33;107719;1250;109574;-62
2023/04/14 10:21:32;;;;;;;16.10;4.00;;;;;;;25.68;31.42;100348.27;107732;1250;108805;-63
2023/04/14 10:24:01;;;;;;;9.70;3.90;;;;;;;24.97;31.49;100345.41;107910;1249;97828;-62
2023/04/14 10:26:29;;;;;;;7.40;4.10;;;;;;;25.24;32.42;100343.84;107924;1248;98537;-62
2023/04/14 10:29:00;;;;;;;5.30;3.80;;;;;;;25.99;31.39;100341.99;107955;1249;111808;-62
2023/04/14 10:31:44;;;;;;;7.70;3.40;;;;;;;26.69;30.59;100336.86;107698;1251;109798;-63
2023/04/14 10:34:14;;;;;;;13.00;3.80;;;;;;;27.15;30.87;100336.91;107696;1251;108257;-64
2023/04/14 10:36:43;;;;;;;4.80;3.40;;;;;;;27.20;31.27;100339.30;107676;1251;97841;-64
2023/04/14 10:39:12;;;;;;;6.60;3.50;;;;;;;27.29;30.33;100342.66;107684;1250;97803;-62
2023/04/14 10:41:46;;;;;;;17.60;4.20;;;;;;;27.04;29.58;100345.45;107652;1251;111321;-64
2023/04/14 10:44:33;;;;;;;15.30;3.90;;;;;;;27.14;29.57;100341.04;107634;1251;109390;-63
2023/04/14 10:47:06;;;;;;;17.10;4.30;;;;;;;27.83;28.96;100345.65;107604;1250;108727;-62
2023/04/14 10:49:38;;;;;;;9.10;3.70;;;;;;;27.62;29.15;100345.02;107540;1250;97835;-63
2023/04/14 10:52:15;;;;;;;4.30;3.40;;;;;;;28.15;28.74;100340.09;107600;1250;97802;-64
2023/04/14 10:54:48;;;;;;;16.30;3.80;;;;;;;28.48;27.70;100337.91;107595;1249;111709;-63
2023/04/14 10:57:18;;;;;;;;;;;;;;;27.79;27.66;100335.90;107668;1250;109840;-63
2023/04/14 10:59:46;;;;;;;9.50;3.30;;;;;;;27.06;28.77;100334.09;107595;1249;108184;-64
2023/04/14 11:02:22;;;;;;;17.00;3.90;;;;;;;26.95;29.10;100326.39;107682;1250;97824;-62
2023/04/14 11:04:57;;;;;;;4.60;3.00;;;;;;;26.99;29.17;100324.56;107581;1250;97688;-62
2023/04/14 11:07:29;;;;;;;12.20;4.00;;;;;;;27.60;28.51;100320.45;107597;1250;113225;-63
2023/04/14 11:10:23;;;;;;;5.60;3.70;;;;;;;28.29;27.92;100320.28;107631;1250;110386;-62
2023/04/14 11:12:56;;;;;;;9.90;3.60;;;;;;;28.92;27.80;100313.70;107493;1251;110540;-63
2023/04/14 11:15:41;;;;;;;7.10;2.90;;;;;;;29.37;27.21;100309.83;107720;1250;97804;-64
2023/04/14 11:18:18;;;;;;;5.60;2.70;;;;;;;29.76;26.91;100308.90;107597;1250;97848;-63
2023/04/14 11:20:46;;;;;;;8.70;2.50;;;;;;;30.35;24.65;100313.04;107624;1250;111390;-62
2023/04/14 11:23:15;;;;;;;10.20;2.50;;;;;;;30.75;23.15;100316.96;107767;1248;110677;-62